createdAt,value
2019-02-27T00:04:36.095Z,974.2
2019-02-27T00:14:39.867Z,974.2
2019-02-27T00:24:43.683Z,974.5
2019-02-27T00:34:47.468Z,974.4
2019-02-27T00:44:51.291Z,974.5
2019-02-27T00:54:55.062Z,974.6
2019-02-27T01:04:58.824Z,974.5
2019-02-27T01:15:02.596Z,974.8
2019-02-27T01:25:06.371Z,975.1
2019-02-27T01:35:10.170Z,975.1
2019-02-27T01:45:13.987Z,975
2019-02-27T01:55:22.870Z,975.3
2019-02-27T02:05:27.938Z,975.2
2019-02-27T02:15:31.724Z,975
2019-02-27T02:25:35.521Z,975
2019-02-27T02:35:39.324Z,975.3
2019-02-27T02:45:43.146Z,975.2
2019-02-27T02:55:49.805Z,975.1
2019-02-27T03:06:00.455Z,975.1
2019-02-27T03:16:06.527Z,975.1
2019-02-27T03:26:17.763Z,975.2
2019-02-27T03:36:21.657Z,975.5
2019-02-27T03:46:25.446Z,975.7
2019-02-27T03:56:29.228Z,975.4
2019-02-27T04:06:33.023Z,975.3
2019-02-27T04:16:38.782Z,975.1
2019-02-27T04:26:43.290Z,974.9
2019-02-27T04:36:48.270Z,975.5
2019-02-27T04:46:56.042Z,975.9
2019-02-27T04:56:59.815Z,976.2
2019-02-27T05:07:03.604Z,976.4
2019-02-27T05:17:07.382Z,976.2
2019-02-27T05:27:11.177Z,976.1
2019-02-27T05:37:14.983Z,976.4
2019-02-27T05:47:18.757Z,976.3
2019-02-27T05:57:24.377Z,976.4
2019-02-27T06:07:28.108Z,976.1
2019-02-27T06:17:49.842Z,976.4
2019-02-27T06:27:53.405Z,976.6
2019-02-27T06:37:56.821Z,976.4
2019-02-27T06:48:00.260Z,976.6
2019-02-27T06:58:03.709Z,974.2
2019-02-27T07:08:07.170Z,973
2019-02-27T07:18:12.255Z,972.1
2019-02-27T07:28:15.671Z,978.6
2019-02-27T07:38:22.455Z,977.6
2019-02-27T07:48:25.891Z,976.5
2019-02-27T07:58:34.845Z,975.4
2019-02-27T08:08:38.286Z,973.9
2019-02-27T08:18:41.747Z,972.7
2019-02-27T08:28:45.145Z,971.6
2019-02-27T08:38:48.602Z,978.4
2019-02-27T08:48:52.033Z,977.8
2019-02-27T08:58:55.486Z,977.2
2019-02-27T09:08:58.921Z,976.9
2019-02-27T09:19:02.389Z,976.1
2019-02-27T09:29:05.886Z,976.4
2019-02-27T09:39:09.340Z,977.3
2019-02-27T09:49:12.779Z,976.8
2019-02-27T09:59:20.606Z,976.8
2019-02-27T10:09:24.038Z,970.4
2019-02-27T10:19:28.104Z,976.7
2019-02-27T10:29:31.526Z,976.9
2019-02-27T10:39:37.863Z,976.9
2019-02-27T10:49:41.277Z,977
2019-02-27T10:59:44.747Z,977
2019-02-27T11:09:48.197Z,976.2
2019-02-27T11:19:51.631Z,976.4
2019-02-27T11:30:03.470Z,976.1
2019-02-27T11:40:08.726Z,976.2
2019-02-27T11:50:18.498Z,975.5
2019-02-27T12:00:22.095Z,974.9
2019-02-27T12:10:25.524Z,974.9
2019-02-27T12:20:28.945Z,973.9
2019-02-27T12:30:32.369Z,973.6
2019-02-27T12:40:35.773Z,973.2
2019-02-27T12:50:39.232Z,972.9
2019-02-27T13:00:43.420Z,973
2019-02-27T13:10:49.004Z,972.3
2019-02-27T13:20:52.433Z,972.2
2019-02-27T13:30:55.826Z,972.3
2019-02-27T13:40:59.243Z,972.3
2019-02-27T13:51:03.101Z,971.4
2019-02-27T14:01:06.551Z,971.7
2019-02-27T14:11:10.008Z,971.3
2019-02-27T14:21:15.287Z,971.1
2019-02-27T14:31:18.731Z,971.2
2019-02-27T14:41:22.167Z,971.2
2019-02-27T14:51:25.631Z,971
2019-02-27T15:01:29.090Z,970.8
2019-02-27T15:11:32.747Z,970.7
2019-02-27T15:21:36.170Z,970.7
2019-02-27T15:31:39.597Z,970.7
2019-02-27T15:41:43.023Z,970.6
2019-02-27T15:51:46.460Z,970.8
2019-02-27T16:01:49.908Z,970.8
2019-02-27T16:11:53.309Z,971
2019-02-27T16:21:58.184Z,971
2019-02-27T16:32:01.647Z,971.2
2019-02-27T16:42:06.537Z,971.3
2019-02-27T16:52:09.949Z,971.4
2019-02-27T17:02:13.412Z,971.7
2019-02-27T17:12:16.863Z,971.8
2019-02-27T17:22:20.278Z,972.1
2019-02-27T17:32:23.722Z,972.6
2019-02-27T17:42:27.155Z,972.8
2019-02-27T17:52:30.582Z,973.4
2019-02-27T18:02:34.351Z,966.2
2019-02-27T18:12:37.797Z,966.7
2019-02-27T18:22:41.221Z,966.8
2019-02-27T18:42:56.961Z,967.5
2019-02-27T18:53:00.409Z,967.5
2019-02-27T19:03:03.801Z,968
2019-02-27T19:13:07.289Z,968.2
2019-02-27T19:23:10.726Z,968.5
2019-02-27T19:33:14.158Z,968.6
2019-02-27T19:43:22.013Z,968.7
2019-02-27T19:53:25.506Z,969.1
2019-02-27T20:03:35.789Z,969
2019-02-27T20:13:39.251Z,969.7
2019-02-27T20:23:42.672Z,969.9
2019-02-27T20:33:46.162Z,970
2019-02-27T20:43:49.602Z,970.2
2019-02-27T20:53:56.742Z,970.3
2019-02-27T21:04:02.779Z,970.7
2019-02-27T21:14:06.212Z,970.9
2019-02-27T21:24:09.651Z,971.2
2019-02-27T21:34:13.097Z,971.4
2019-02-27T21:44:29.970Z,971.5
2019-02-27T21:54:39.685Z,971.8
2019-02-27T22:04:44.978Z,972.3
2019-02-27T22:14:49.473Z,972.3
2019-02-27T22:24:56.583Z,972.3
2019-02-27T22:35:04.364Z,972.5
2019-02-27T22:45:07.780Z,972.4
2019-02-27T22:55:11.200Z,972.6
2019-02-27T23:05:14.666Z,972.8
2019-02-27T23:15:18.120Z,972.7
2019-02-27T23:25:21.577Z,965.4
2019-02-27T23:35:25.040Z,965.5
2019-02-27T23:45:28.514Z,965.3
2019-02-27T23:55:31.923Z,965.7
